createdAt,value
2023-04-15T00:02:18.532Z,19.84
2023-04-15T00:04:51.999Z,19.70
2023-04-15T00:07:25.450Z,19.71
2023-04-15T00:09:59.272Z,19.77
2023-04-15T00:12:33.856Z,19.95
2023-04-15T00:15:10.436Z,19.89
2023-04-15T00:17:44.132Z,20.03
2023-04-15T00:20:17.751Z,19.85
2023-04-15T00:22:51.263Z,19.80
2023-04-15T00:25:24.738Z,19.97
2023-04-15T00:27:58.514Z,19.85
2023-04-15T00:30:32.495Z,20.16
2023-04-15T00:33:06.665Z,20.20
2023-04-15T00:35:40.652Z,20.08
2023-04-15T00:38:14.772Z,20.11
2023-04-15T00:40:48.745Z,20.16
2023-04-15T00:43:22.816Z,19.97
2023-04-15T00:45:58.007Z,20.06
2023-04-15T00:48:31.774Z,20.43
2023-04-15T00:51:05.107Z,20.53
2023-04-15T00:53:38.609Z,20.38
2023-04-15T00:56:12.154Z,20.33
2023-04-15T00:58:45.615Z,20.35
2023-04-15T01:01:20.345Z,20.72
2023-04-15T01:03:55.151Z,20.43
2023-04-15T01:06:29.289Z,20.36
2023-04-15T01:09:03.637Z,20.34
2023-04-15T01:11:37.945Z,20.34
2023-04-15T01:14:12.961Z,20.51
2023-04-15T01:16:48.178Z,20.58
2023-04-15T01:19:22.841Z,21.01
2023-04-15T01:21:56.478Z,20.61
2023-04-15T01:24:31.811Z,20.52
2023-04-15T01:27:05.992Z,20.57
2023-04-15T01:29:40.711Z,20.51
2023-04-15T01:32:14.033Z,20.40
2023-04-15T01:35:05.807Z,20.28
2023-04-15T01:37:53.063Z,20.52
2023-04-15T01:40:25.839Z,20.37
2023-04-15T01:43:01.442Z,20.36
2023-04-15T01:45:36.511Z,20.37
2023-04-15T01:48:12.552Z,20.29
2023-04-15T01:50:47.530Z,20.53
2023-04-15T01:53:22.437Z,20.46
2023-04-15T01:55:57.603Z,20.54
2023-04-15T01:58:32.669Z,20.45
2023-04-15T02:01:07.763Z,20.48
2023-04-15T02:03:42.992Z,20.69
2023-04-15T02:06:18.561Z,20.67
2023-04-15T02:08:53.490Z,20.98
2023-04-15T02:11:28.440Z,20.76
2023-04-15T02:14:04.284Z,20.78
2023-04-15T02:16:39.158Z,20.75
2023-04-15T02:19:15.605Z,20.68
2023-04-15T02:21:50.464Z,20.58
2023-04-15T02:24:25.463Z,20.63
2023-04-15T02:27:01.322Z,20.74
2023-04-15T02:29:36.620Z,20.76
2023-04-15T02:32:12.263Z,20.94
2023-04-15T02:34:47.080Z,21.12
2023-04-15T02:37:22.399Z,21.13
2023-04-15T02:39:57.463Z,21.30
2023-04-15T02:42:32.747Z,21.19
2023-04-15T02:45:09.859Z,21.04
2023-04-15T02:47:46.134Z,21.05
2023-04-15T02:50:21.245Z,20.94
2023-04-15T02:52:56.213Z,20.82
2023-04-15T02:55:31.142Z,21.05
2023-04-15T02:58:06.040Z,21.17
2023-04-15T03:00:40.972Z,21.86
2023-04-15T03:03:16.441Z,21.60
2023-04-15T03:05:51.719Z,21.53
2023-04-15T03:08:27.169Z,21.40
2023-04-15T03:11:03.360Z,21.48
2023-04-15T03:13:39.776Z,21.71
2023-04-15T03:16:16.468Z,21.58
2023-04-15T03:18:51.726Z,21.48
2023-04-15T03:21:27.952Z,21.34
2023-04-15T03:24:03.175Z,21.39
2023-04-15T03:26:37.813Z,21.14
2023-04-15T03:29:20.353Z,21.33
2023-04-15T03:31:56.403Z,21.48
2023-04-15T03:34:31.627Z,21.56
2023-04-15T03:37:06.983Z,22.13
2023-04-15T03:39:41.920Z,22.01
2023-04-15T03:42:16.705Z,21.76
2023-04-15T03:44:51.701Z,21.61
2023-04-15T03:47:28.790Z,21.47
2023-04-15T03:50:03.500Z,21.59
2023-04-15T03:52:38.127Z,21.46
2023-04-15T03:55:13.510Z,21.29
2023-04-15T03:57:48.354Z,21.39
2023-04-15T04:00:23.714Z,21.44
2023-04-15T04:02:59.481Z,21.36
2023-04-15T04:05:36.002Z,21.44
2023-04-15T04:08:13.162Z,21.32
2023-04-15T04:10:49.069Z,21.39
2023-04-15T04:13:24.089Z,21.20
2023-04-15T04:15:58.995Z,21.24
2023-04-15T04:18:37.504Z,21.16
2023-04-15T04:21:12.848Z,21.19
2023-04-15T04:23:47.601Z,21.04
2023-04-15T04:26:23.099Z,21.17
2023-04-15T04:29:01.301Z,21.12
2023-04-15T04:31:36.726Z,21.07
2023-04-15T04:34:21.352Z,20.87
2023-04-15T04:36:57.263Z,21.06
2023-04-15T04:39:32.966Z,20.87
2023-04-15T04:42:07.752Z,20.97
2023-04-15T04:44:42.790Z,20.99
2023-04-15T04:47:35.243Z,21.09
2023-04-15T04:50:29.294Z,20.95
2023-04-15T04:53:05.652Z,21.13
2023-04-15T04:55:40.924Z,21.30
2023-04-15T04:58:16.047Z,21.66
2023-04-15T05:00:51.348Z,21.63
2023-04-15T05:03:26.505Z,21.92
2023-04-15T05:06:03.495Z,21.57
2023-04-15T05:08:40.405Z,21.70
2023-04-15T05:11:15.665Z,21.66
2023-04-15T05:13:51.100Z,21.11
2023-04-15T05:16:26.215Z,21.01
2023-04-15T05:19:01.644Z,20.94
2023-04-15T05:21:38.285Z,20.98
2023-04-15T05:24:12.953Z,20.91
2023-04-15T05:26:48.209Z,21.37
2023-04-15T05:29:23.160Z,20.97
2023-04-15T05:31:58.784Z,20.86
2023-04-15T05:34:33.843Z,20.85
2023-04-15T05:37:08.655Z,20.73
2023-04-15T05:39:44.694Z,20.92
2023-04-15T05:42:20.044Z,21.17
2023-04-15T05:44:55.410Z,20.84
2023-04-15T05:47:30.486Z,21.01
2023-04-15T05:50:06.795Z,21.08
2023-04-15T05:52:42.432Z,20.91
2023-04-15T05:55:17.440Z,20.79
2023-04-15T05:57:52.391Z,20.63
2023-04-15T06:00:27.527Z,20.62
2023-04-15T06:03:04.439Z,20.29
2023-04-15T06:05:53.874Z,20.32
2023-04-15T06:08:33.112Z,20.16
2023-04-15T06:11:10.129Z,20.44
2023-04-15T06:13:48.233Z,20.37
2023-04-15T06:16:24.145Z,20.33
2023-04-15T06:18:58.908Z,20.28
2023-04-15T06:21:33.899Z,20.00
2023-04-15T06:24:09.318Z,19.84
2023-04-15T06:26:44.448Z,19.67
2023-04-15T06:29:19.484Z,19.46
2023-04-15T06:31:54.664Z,19.26
2023-04-15T06:34:29.682Z,19.04
2023-04-15T06:37:06.231Z,18.99
2023-04-15T06:39:41.678Z,19.22
2023-04-15T06:42:16.851Z,19.07
2023-04-15T06:47:33.638Z,18.32
2023-04-15T06:50:10.285Z,17.96
2023-04-15T06:52:45.455Z,17.66
2023-04-15T06:55:20.187Z,17.45
2023-04-15T06:57:54.594Z,16.99
2023-04-15T07:00:29.618Z,16.48
2023-04-15T07:03:04.993Z,16.00
2023-04-15T07:05:42.394Z,15.49
2023-04-15T07:08:23.320Z,15.29
2023-04-15T07:11:00.803Z,14.93
2023-04-15T07:13:36.549Z,14.64
2023-04-15T07:16:27.181Z,14.37
2023-04-15T07:19:04.650Z,13.99
2023-04-15T07:24:23.519Z,13.11
2023-04-15T07:27:00.850Z,13.11
2023-04-15T07:29:35.551Z,12.70
2023-04-15T07:32:11.714Z,12.35
2023-04-15T07:34:47.215Z,12.07
2023-04-15T07:37:21.928Z,11.84
2023-04-15T07:39:56.921Z,11.80
2023-04-15T07:42:31.647Z,11.27
2023-04-15T07:45:07.663Z,10.95
2023-04-15T07:47:42.816Z,10.71
2023-04-15T07:50:19.998Z,10.51
2023-04-15T07:52:54.846Z,9.95
2023-04-15T07:55:30.788Z,9.95
2023-04-15T07:58:05.655Z,9.54
2023-04-15T08:00:40.439Z,9.40
2023-04-15T08:03:15.893Z,9.35
2023-04-15T08:05:51.073Z,9.00
2023-04-15T08:08:26.448Z,8.91
2023-04-15T08:11:02.210Z,8.63
2023-04-15T08:13:37.279Z,8.56
2023-04-15T08:16:21.083Z,8.48
2023-04-15T08:22:17.724Z,9.34
2023-04-15T08:25:16.177Z,8.89
2023-04-15T08:27:54.577Z,8.56
2023-04-15T08:30:30.402Z,8.64
2023-04-15T08:33:05.541Z,8.54
2023-04-15T08:35:40.580Z,8.60
2023-04-15T08:38:15.692Z,8.17
2023-04-15T08:40:51.959Z,7.74
2023-04-15T08:43:30.470Z,7.56
2023-04-15T08:46:05.878Z,7.56
2023-04-15T08:48:41.964Z,7.47
2023-04-15T08:51:17.460Z,7.70
2023-04-15T08:53:53.113Z,8.25
2023-04-15T08:56:29.694Z,8.35
2023-04-15T08:59:05.765Z,7.99
2023-04-15T09:01:41.686Z,7.76
2023-04-15T09:04:18.212Z,7.82
2023-04-15T09:06:53.416Z,7.98
2023-04-15T09:09:29.275Z,7.80
2023-04-15T09:12:05.297Z,7.97
2023-04-15T09:14:41.744Z,8.04
2023-04-15T09:17:18.120Z,8.38
2023-04-15T09:20:09.462Z,8.29
2023-04-15T09:22:45.622Z,8.21
2023-04-15T09:25:34.960Z,8.04
2023-04-15T09:28:10.035Z,8.04
2023-04-15T09:30:49.746Z,8.33
2023-04-15T09:33:25.115Z,8.55
2023-04-15T09:36:04.980Z,8.76
2023-04-15T09:38:50.210Z,9.34
2023-04-15T09:41:25.843Z,9.46
2023-04-15T09:44:26.382Z,9.94
2023-04-15T09:47:01.477Z,10.00
2023-04-15T09:49:36.253Z,9.96
2023-04-15T09:52:10.645Z,9.64
2023-04-15T09:54:46.512Z,9.70
2023-04-15T09:57:21.918Z,10.04
2023-04-15T09:59:56.199Z,9.90
2023-04-15T10:02:32.161Z,9.99
2023-04-15T10:05:08.637Z,10.06
2023-04-15T10:07:43.709Z,9.97
2023-04-15T10:10:18.305Z,9.76
2023-04-15T10:12:53.826Z,9.60
2023-04-15T10:15:30.124Z,9.56
2023-04-15T10:18:07.345Z,9.89
2023-04-15T10:20:42.816Z,9.89
2023-04-15T10:23:18.944Z,9.80
2023-04-15T10:25:55.465Z,9.93
2023-04-15T10:28:30.299Z,10.13
2023-04-15T10:31:06.229Z,9.61
2023-04-15T10:33:41.044Z,9.46
2023-04-15T10:36:17.004Z,9.73
2023-04-15T10:38:51.308Z,9.69
2023-04-15T10:41:28.177Z,9.50
2023-04-15T10:44:05.346Z,9.41
2023-04-15T10:46:42.998Z,9.36
2023-04-15T10:49:19.828Z,9.15
2023-04-15T10:51:57.781Z,9.00
2023-04-15T10:57:24.422Z,9.30
2023-04-15T11:00:13.149Z,9.30
2023-04-15T11:02:49.257Z,9.49
2023-04-15T11:05:24.696Z,9.72
2023-04-15T11:07:59.587Z,10.11
2023-04-15T11:10:57.719Z,9.97
2023-04-15T11:13:34.425Z,9.72
2023-04-15T11:16:09.461Z,9.24
2023-04-15T11:18:44.212Z,9.78
2023-04-15T11:21:18.765Z,9.58
2023-04-15T11:23:53.438Z,9.71
2023-04-15T11:26:29.724Z,9.86
2023-04-15T11:29:05.604Z,9.39
2023-04-15T11:31:40.724Z,9.86
2023-04-15T11:34:16.664Z,9.77
2023-04-15T11:36:51.991Z,9.63
2023-04-15T11:39:26.520Z,9.75
2023-04-15T11:44:42.893Z,9.35
2023-04-15T11:47:26.485Z,9.26
2023-04-15T11:50:10.751Z,9.45
2023-04-15T11:52:45.683Z,9.64
2023-04-15T11:55:19.837Z,9.49
2023-04-15T11:58:09.716Z,9.88
2023-04-15T12:00:45.038Z,9.77
2023-04-15T12:03:21.548Z,9.98
2023-04-15T12:06:10.608Z,9.94
2023-04-15T12:09:07.529Z,9.91
2023-04-15T12:11:43.324Z,9.76
2023-04-15T12:14:20.638Z,9.62
2023-04-15T12:16:58.460Z,9.56
2023-04-15T12:19:36.147Z,9.80
2023-04-15T12:22:10.996Z,9.66
2023-04-15T12:24:47.074Z,9.35
2023-04-15T12:27:21.311Z,9.20
2023-04-15T12:29:57.906Z,8.83
2023-04-15T12:32:31.830Z,8.85
2023-04-15T12:35:05.349Z,9.03
2023-04-15T12:37:38.636Z,8.63
2023-04-15T12:40:13.495Z,9.15
2023-04-15T12:42:47.625Z,9.46
2023-04-15T12:45:21.532Z,9.56
2023-04-15T12:47:55.047Z,9.42
2023-04-15T12:50:29.136Z,9.62
2023-04-15T12:53:02.861Z,9.64
2023-04-15T12:55:36.496Z,9.66
2023-04-15T12:58:11.816Z,10.00
2023-04-15T13:00:45.576Z,10.19
2023-04-15T13:03:19.337Z,10.16
2023-04-15T13:08:42.556Z,10.35
2023-04-15T13:11:14.570Z,10.34
2023-04-15T13:13:48.545Z,10.26
2023-04-15T13:16:22.290Z,9.97
2023-04-15T13:18:55.743Z,9.93
2023-04-15T13:21:29.366Z,9.82
2023-04-15T13:24:03.505Z,9.93
2023-04-15T13:26:38.133Z,9.85
2023-04-15T13:29:12.745Z,9.86
2023-04-15T13:31:46.255Z,9.77
2023-04-15T13:34:19.938Z,9.80
2023-04-15T13:36:53.523Z,9.83
2023-04-15T13:39:27.473Z,10.18
2023-04-15T13:42:01.219Z,10.08
2023-04-15T13:44:34.784Z,10.27
2023-04-15T13:47:08.685Z,10.55
2023-04-15T13:49:44.126Z,10.73
2023-04-15T13:52:17.652Z,10.67
2023-04-15T13:55:07.692Z,10.54
2023-04-15T13:57:26.781Z,10.51
2023-04-15T14:00:00.723Z,10.35
2023-04-15T14:02:35.103Z,10.33
2023-04-15T14:05:09.859Z,10.33
2023-04-15T14:07:43.324Z,10.58
2023-04-15T14:10:16.848Z,10.75
2023-04-15T14:12:51.703Z,10.57
2023-04-15T14:15:25.304Z,10.60
2023-04-15T14:17:58.997Z,10.64
2023-04-15T14:20:32.813Z,10.66
2023-04-15T14:23:06.599Z,10.59
2023-04-15T14:25:40.189Z,10.45
2023-04-15T14:28:13.495Z,10.75
2023-04-15T14:30:47.188Z,10.94
2023-04-15T14:33:21.247Z,11.02
2023-04-15T14:35:55.486Z,11.13
2023-04-15T14:38:29.081Z,11.43
2023-04-15T14:41:03.093Z,11.51
2023-04-15T14:43:37.075Z,11.66
2023-04-15T14:46:10.788Z,11.91
2023-04-15T14:48:44.657Z,12.12
2023-04-15T14:51:17.922Z,12.17
2023-04-15T14:53:51.168Z,12.15
2023-04-15T14:56:24.664Z,12.15
2023-04-15T14:58:58.190Z,12.16
2023-04-15T15:01:31.854Z,12.38
2023-04-15T15:04:09.613Z,12.60
2023-04-15T15:06:46.730Z,12.63
2023-04-15T15:09:22.307Z,12.59
2023-04-15T15:11:57.176Z,12.60
2023-04-15T15:14:31.206Z,12.47
2023-04-15T15:17:04.929Z,12.66
2023-04-15T15:19:38.521Z,12.55
2023-04-15T15:22:12.736Z,12.69
2023-04-15T15:24:46.068Z,12.67
2023-04-15T15:27:19.879Z,12.60
2023-04-15T15:29:53.518Z,12.67
2023-04-15T15:32:27.214Z,12.80
2023-04-15T15:35:00.591Z,13.60
2023-04-15T15:37:36.420Z,13.65
2023-04-15T15:40:12.264Z,13.24
2023-04-15T15:42:47.467Z,13.23
2023-04-15T15:45:21.361Z,13.38
2023-04-15T15:47:56.573Z,13.40
2023-04-15T15:50:30.398Z,13.59
2023-04-15T15:53:04.116Z,13.74
2023-04-15T15:55:37.421Z,13.73
2023-04-15T15:58:13.612Z,13.81
2023-04-15T16:00:47.264Z,13.95
2023-04-15T16:03:25.759Z,14.12
2023-04-15T16:06:00.914Z,14.24
2023-04-15T16:08:34.527Z,14.42
2023-04-15T16:11:08.075Z,14.59
2023-04-15T16:13:41.632Z,14.63
2023-04-15T16:16:15.294Z,14.81
2023-04-15T16:18:49.040Z,14.78
2023-04-15T16:21:24.633Z,14.91
2023-04-15T16:23:58.574Z,15.03
2023-04-15T16:26:32.281Z,14.97
2023-04-15T16:29:09.150Z,15.21
2023-04-15T16:31:42.952Z,15.34
2023-04-15T16:34:17.637Z,15.30
2023-04-15T16:36:51.361Z,15.41
2023-04-15T16:39:26.599Z,15.58
2023-04-15T16:42:00.405Z,15.59
2023-04-15T16:44:34.581Z,15.77
2023-04-15T16:47:09.973Z,15.65
2023-04-15T16:49:43.830Z,15.56
2023-04-15T16:52:19.753Z,15.75
2023-04-15T16:54:53.242Z,15.56
2023-04-15T16:57:29.633Z,15.45
2023-04-15T17:00:02.420Z,15.68
2023-04-15T17:02:36.170Z,15.89
2023-04-15T17:05:11.462Z,15.83
2023-04-15T17:07:46.285Z,16.00
2023-04-15T17:10:20.200Z,16.30
2023-04-15T17:12:53.527Z,16.13
2023-04-15T17:15:34.065Z,16.00
2023-04-15T17:18:14.390Z,15.91
2023-04-15T17:21:17.868Z,16.00
2023-04-15T17:24:04.246Z,16.07
2023-04-15T17:26:44.444Z,16.07
2023-04-15T17:29:21.956Z,15.94
2023-04-15T17:31:57.684Z,16.06
2023-04-15T17:34:51.374Z,16.26
2023-04-15T17:37:29.749Z,16.61
2023-04-15T17:40:08.472Z,16.55
2023-04-15T17:45:36.947Z,16.01
2023-04-15T17:50:57.641Z,16.42
2023-04-15T17:53:36.206Z,16.98
2023-04-15T17:56:18.103Z,16.97
2023-04-15T17:58:56.348Z,17.09
2023-04-15T18:01:34.192Z,16.95
2023-04-15T18:04:24.854Z,16.97
2023-04-15T18:07:07.478Z,17.09
2023-04-15T18:10:07.861Z,17.20
2023-04-15T18:12:49.922Z,17.16
2023-04-15T18:15:36.796Z,17.17
2023-04-15T18:18:14.677Z,17.43
2023-04-15T18:20:55.378Z,17.43
2023-04-15T18:23:33.617Z,17.38
2023-04-15T18:26:05.892Z,17.50
2023-04-15T18:28:41.956Z,16.10
2023-04-15T18:31:15.804Z,17.24
2023-04-15T18:33:56.868Z,17.34
2023-04-15T18:36:58.636Z,17.47
2023-04-15T18:39:39.253Z,17.50
2023-04-15T18:42:20.516Z,17.51
2023-04-15T18:45:11.510Z,17.49
2023-04-15T18:47:57.168Z,17.52
2023-04-15T18:50:30.643Z,17.51
2023-04-15T18:53:04.104Z,17.44
2023-04-15T18:55:37.931Z,17.83
2023-04-15T18:58:11.599Z,17.90
2023-04-15T19:00:45.496Z,17.98
2023-04-15T19:03:18.762Z,18.11
2023-04-15T19:05:52.395Z,17.98
2023-04-15T19:08:25.842Z,18.05
2023-04-15T19:10:59.590Z,18.20
2023-04-15T19:13:33.111Z,18.49
2023-04-15T19:16:07.524Z,18.34
2023-04-15T19:18:40.955Z,18.37
2023-04-15T19:21:16.253Z,18.36
2023-04-15T19:23:50.253Z,18.32
2023-04-15T19:26:23.946Z,18.19
2023-04-15T19:28:59.003Z,18.71
2023-04-15T19:31:32.604Z,19.02
2023-04-15T19:34:09.272Z,18.96
2023-04-15T19:36:42.706Z,19.03
2023-04-15T19:39:16.338Z,19.02
2023-04-15T19:41:49.925Z,19.29
2023-04-15T19:44:23.614Z,19.16
2023-04-15T19:46:57.372Z,19.22
2023-04-15T19:49:31.514Z,19.08
2023-04-15T19:52:05.487Z,19.26
2023-04-15T19:54:38.816Z,19.44
2023-04-15T19:57:12.520Z,19.42
2023-04-15T19:59:46.298Z,19.15
2023-04-15T20:02:19.946Z,19.56
2023-04-15T20:04:53.565Z,19.66
2023-04-15T20:07:27.506Z,19.79
2023-04-15T20:10:01.442Z,19.73
2023-04-15T20:12:50.465Z,19.67
2023-04-15T20:15:12.714Z,19.61
2023-04-15T20:17:46.288Z,19.72
2023-04-15T20:20:19.911Z,19.81
2023-04-15T20:22:55.897Z,19.87
2023-04-15T20:25:29.169Z,19.82
2023-04-15T20:28:03.172Z,19.73
2023-04-15T20:30:37.465Z,20.11
2023-04-15T20:33:11.051Z,19.92
2023-04-15T20:35:44.614Z,20.09
2023-04-15T20:38:18.170Z,20.19
2023-04-15T20:40:51.921Z,19.90
2023-04-15T20:43:26.248Z,20.33
2023-04-15T20:46:09.939Z,20.34
2023-04-15T20:48:35.478Z,20.74
2023-04-15T20:51:09.083Z,20.25
2023-04-15T20:53:42.759Z,20.27
2023-04-15T20:56:16.589Z,20.24
2023-04-15T20:58:50.118Z,20.12
2023-04-15T21:01:23.801Z,20.29
2023-04-15T21:03:57.902Z,20.23
2023-04-15T21:06:34.264Z,20.18
2023-04-15T21:09:08.801Z,20.74
2023-04-15T21:11:57.350Z,20.71
2023-04-15T21:14:18.343Z,20.58
2023-04-15T21:16:53.406Z,20.80
2023-04-15T21:19:27.380Z,20.58
2023-04-15T21:22:01.469Z,20.70
2023-04-15T21:24:35.212Z,20.81
2023-04-15T21:27:08.569Z,20.70
2023-04-15T21:32:26.746Z,20.56
2023-04-15T21:35:01.940Z,20.68
2023-04-15T21:37:35.441Z,20.48
2023-04-15T21:40:11.757Z,20.87
2023-04-15T21:42:45.753Z,20.78
2023-04-15T21:45:20.035Z,21.04
2023-04-15T21:48:00.438Z,20.81
2023-04-15T21:50:28.637Z,21.35
2023-04-15T21:53:02.556Z,21.19
2023-04-15T21:55:36.195Z,21.29
2023-04-15T21:58:09.697Z,20.98
2023-04-15T22:00:43.233Z,20.93
2023-04-15T22:03:17.321Z,20.82
2023-04-15T22:05:51.078Z,21.10
2023-04-15T22:08:26.903Z,21.12
2023-04-15T22:11:00.253Z,21.27
2023-04-15T22:13:33.758Z,20.97
2023-04-15T22:16:07.421Z,21.17
2023-04-15T22:18:41.365Z,21.16
2023-04-15T22:21:15.412Z,21.36
2023-04-15T22:23:50.601Z,21.28
2023-04-15T22:26:24.006Z,21.63
2023-04-15T22:28:57.449Z,21.38
2023-04-15T22:34:17.823Z,21.16
2023-04-15T22:36:51.846Z,21.27
2023-04-15T22:39:25.663Z,21.59
2023-04-15T22:41:59.448Z,21.41
2023-04-15T22:44:33.102Z,21.60
2023-04-15T22:47:06.770Z,21.44
2023-04-15T22:49:40.803Z,21.61
2023-04-15T22:52:29.396Z,21.57
2023-04-15T22:54:53.459Z,21.83
2023-04-15T22:57:27.993Z,21.95
2023-04-15T23:00:01.260Z,22.11
2023-04-15T23:02:36.708Z,21.87
2023-04-15T23:05:12.668Z,22.18
2023-04-15T23:07:46.633Z,22.06
2023-04-15T23:10:20.557Z,22.09
2023-04-15T23:12:54.371Z,22.29
2023-04-15T23:15:27.930Z,22.30
2023-04-15T23:18:02.329Z,22.23
2023-04-15T23:20:36.239Z,22.09
2023-04-15T23:23:09.751Z,22.11
2023-04-15T23:25:43.520Z,21.99
2023-04-15T23:28:17.217Z,22.07
2023-04-15T23:30:51.123Z,22.22
2023-04-15T23:33:24.811Z,22.37
2023-04-15T23:35:58.638Z,22.36
2023-04-15T23:38:32.332Z,22.16
2023-04-15T23:41:07.429Z,22.25
2023-04-15T23:43:41.099Z,21.99
2023-04-15T23:46:15.040Z,21.64
2023-04-15T23:48:49.263Z,22.09
2023-04-15T23:51:22.756Z,22.23
2023-04-15T23:53:56.417Z,21.67
2023-04-15T23:56:29.996Z,22.02
2023-04-15T23:59:03.270Z,21.79
